sensor_id;sensor_type;location;lat;lon;timestamp;P1;durP1;ratioP1;P2;durP2;ratioP2
19645;SDS011;9971;52.446;13.452;2022-07-09T00:04:11;4.50;;;1.85;;
19645;SDS011;9971;52.446;13.452;2022-07-09T00:09:13;2.15;;;1.50;;
19645;SDS011;9971;52.446;13.452;2022-07-09T00:14:16;2.08;;;1.40;;
19645;SDS011;9971;52.446;13.452;2022-07-09T00:19:18;1.47;;;1.30;;
19645;SDS011;9971;52.446;13.452;2022-07-09T00:24:21;5.17;;;1.77;;
19645;SDS011;9971;52.446;13.452;2022-07-09T00:29:24;1.70;;;1.32;;
19645;SDS011;9971;52.446;13.452;2022-07-09T00:34:26;3.57;;;1.50;;
19645;SDS011;9971;52.446;13.452;2022-07-09T00:39:28;2.67;;;1.25;;
19645;SDS011;9971;52.446;13.452;2022-07-09T00:44:30;2.95;;;1.22;;
19645;SDS011;9971;52.446;13.452;2022-07-09T00:49:35;5.10;;;2.00;;
19645;SDS011;9971;52.446;13.452;2022-07-09T00:54:35;2.08;;;1.32;;
19645;SDS011;9971;52.446;13.452;2022-07-09T00:59:38;2.00;;;1.53;;
19645;SDS011;9971;52.446;13.452;2022-07-09T01:04:39;6.03;;;1.70;;
19645;SDS011;9971;52.446;13.452;2022-07-09T01:09:42;4.30;;;1.72;;
19645;SDS011;9971;52.446;13.452;2022-07-09T01:14:44;4.00;;;1.63;;
19645;SDS011;9971;52.446;13.452;2022-07-09T01:19:47;4.22;;;1.90;;
19645;SDS011;9971;52.446;13.452;2022-07-09T01:24:49;4.80;;;1.95;;
19645;SDS011;9971;52.446;13.452;2022-07-09T01:29:52;2.97;;;1.90;;
19645;SDS011;9971;52.446;13.452;2022-07-09T01:34:54;4.62;;;1.57;;
19645;SDS011;9971;52.446;13.452;2022-07-09T01:39:57;4.80;;;2.05;;
19645;SDS011;9971;52.446;13.452;2022-07-09T01:44:59;3.42;;;1.90;;
19645;SDS011;9971;52.446;13.452;2022-07-09T01:50:01;3.37;;;1.70;;
19645;SDS011;9971;52.446;13.452;2022-07-09T01:55:04;3.30;;;1.80;;
19645;SDS011;9971;52.446;13.452;2022-07-09T02:00:06;5.62;;;1.82;;
19645;SDS011;9971;52.446;13.452;2022-07-09T02:05:09;3.50;;;1.80;;
19645;SDS011;9971;52.446;13.452;2022-07-09T02:10:11;4.00;;;1.90;;
19645;SDS011;9971;52.446;13.452;2022-07-09T02:15:13;4.83;;;2.02;;
19645;SDS011;9971;52.446;13.452;2022-07-09T02:20:16;3.17;;;1.77;;
19645;SDS011;9971;52.446;13.452;2022-07-09T02:25:18;5.15;;;2.35;;
19645;SDS011;9971;52.446;13.452;2022-07-09T02:30:21;5.12;;;2.35;;
19645;SDS011;9971;52.446;13.452;2022-07-09T02:35:23;5.15;;;2.22;;
19645;SDS011;9971;52.446;13.452;2022-07-09T02:40:26;6.10;;;2.87;;
19645;SDS011;9971;52.446;13.452;2022-07-09T02:45:28;5.28;;;2.12;;
19645;SDS011;9971;52.446;13.452;2022-07-09T02:50:31;5.05;;;2.50;;
19645;SDS011;9971;52.446;13.452;2022-07-09T02:55:33;4.67;;;2.33;;
19645;SDS011;9971;52.446;13.452;2022-07-09T03:00:35;5.87;;;2.90;;
19645;SDS011;9971;52.446;13.452;2022-07-09T03:05:37;5.70;;;2.73;;
19645;SDS011;9971;52.446;13.452;2022-07-09T03:10:39;6.03;;;2.77;;
19645;SDS011;9971;52.446;13.452;2022-07-09T03:15:42;4.40;;;2.33;;
19645;SDS011;9971;52.446;13.452;2022-07-09T03:20:44;5.55;;;2.30;;
19645;SDS011;9971;52.446;13.452;2022-07-09T03:25:47;3.53;;;2.23;;
19645;SDS011;9971;52.446;13.452;2022-07-09T03:30:49;2.67;;;2.20;;
19645;SDS011;9971;52.446;13.452;2022-07-09T03:35:53;5.10;;;2.33;;
19645;SDS011;9971;52.446;13.452;2022-07-09T03:40:54;5.90;;;2.33;;
19645;SDS011;9971;52.446;13.452;2022-07-09T03:45:56;3.45;;;2.15;;
19645;SDS011;9971;52.446;13.452;2022-07-09T03:50:58;3.23;;;2.23;;
19645;SDS011;9971;52.446;13.452;2022-07-09T03:56:01;3.80;;;2.35;;
19645;SDS011;9971;52.446;13.452;2022-07-09T04:01:07;3.67;;;2.17;;
19645;SDS011;9971;52.446;13.452;2022-07-09T04:06:09;5.70;;;2.23;;
19645;SDS011;9971;52.446;13.452;2022-07-09T04:11:11;3.03;;;2.00;;
19645;SDS011;9971;52.446;13.452;2022-07-09T04:16:14;3.40;;;1.80;;
19645;SDS011;9971;52.446;13.452;2022-07-09T04:21:16;3.30;;;2.00;;
19645;SDS011;9971;52.446;13.452;2022-07-09T04:26:18;3.45;;;1.92;;
19645;SDS011;9971;52.446;13.452;2022-07-09T04:31:22;5.60;;;2.08;;
19645;SDS011;9971;52.446;13.452;2022-07-09T04:36:24;5.08;;;1.90;;
19645;SDS011;9971;52.446;13.452;2022-07-09T04:41:26;4.08;;;2.05;;
19645;SDS011;9971;52.446;13.452;2022-07-09T04:46:28;3.17;;;1.70;;
19645;SDS011;9971;52.446;13.452;2022-07-09T04:51:30;4.28;;;2.02;;
19645;SDS011;9971;52.446;13.452;2022-07-09T04:56:33;3.60;;;2.10;;
19645;SDS011;9971;52.446;13.452;2022-07-09T05:01:35;4.25;;;1.90;;
19645;SDS011;9971;52.446;13.452;2022-07-09T05:06:38;4.12;;;1.77;;
19645;SDS011;9971;52.446;13.452;2022-07-09T05:11:40;5.08;;;2.30;;
19645;SDS011;9971;52.446;13.452;2022-07-09T05:16:43;2.62;;;1.80;;
19645;SDS011;9971;52.446;13.452;2022-07-09T05:21:45;4.00;;;1.75;;
19645;SDS011;9971;52.446;13.452;2022-07-09T05:26:48;3.17;;;1.98;;
19645;SDS011;9971;52.446;13.452;2022-07-09T05:31:50;6.70;;;2.70;;
19645;SDS011;9971;52.446;13.452;2022-07-09T05:36:52;3.08;;;1.90;;
19645;SDS011;9971;52.446;13.452;2022-07-09T05:41:57;4.10;;;2.07;;
19645;SDS011;9971;52.446;13.452;2022-07-09T05:46:59;4.00;;;2.00;;
19645;SDS011;9971;52.446;13.452;2022-07-09T05:52:02;2.98;;;2.12;;
19645;SDS011;9971;52.446;13.452;2022-07-09T05:57:04;4.35;;;2.55;;
19645;SDS011;9971;52.446;13.452;2022-07-09T06:02:08;3.80;;;2.35;;
19645;SDS011;9971;52.446;13.452;2022-07-09T06:07:10;3.13;;;2.30;;
19645;SDS011;9971;52.446;13.452;2022-07-09T06:12:14;2.50;;;2.10;;
19645;SDS011;9971;52.446;13.452;2022-07-09T06:17:16;3.10;;;2.00;;
19645;SDS011;9971;52.446;13.452;2022-07-09T06:22:19;4.17;;;1.92;;
19645;SDS011;9971;52.446;13.452;2022-07-09T06:27:21;3.50;;;1.67;;
19645;SDS011;9971;52.446;13.452;2022-07-09T06:32:24;4.10;;;2.07;;
19645;SDS011;9971;52.446;13.452;2022-07-09T06:37:26;6.87;;;2.42;;
19645;SDS011;9971;52.446;13.452;2022-07-09T06:42:28;4.17;;;2.45;;
19645;SDS011;9971;52.446;13.452;2022-07-09T06:47:31;2.33;;;1.52;;
19645;SDS011;9971;52.446;13.452;2022-07-09T06:52:33;3.53;;;2.30;;
19645;SDS011;9971;52.446;13.452;2022-07-09T06:57:36;3.08;;;1.98;;
19645;SDS011;9971;52.446;13.452;2022-07-09T07:02:38;2.10;;;1.80;;
19645;SDS011;9971;52.446;13.452;2022-07-09T07:07:40;3.45;;;1.65;;
19645;SDS011;9971;52.446;13.452;2022-07-09T07:12:42;4.12;;;1.80;;
19645;SDS011;9971;52.446;13.452;2022-07-09T07:17:45;3.10;;;1.77;;
19645;SDS011;9971;52.446;13.452;2022-07-09T07:22:47;2.62;;;1.57;;
19645;SDS011;9971;52.446;13.452;2022-07-09T07:27:49;3.23;;;1.73;;
19645;SDS011;9971;52.446;13.452;2022-07-09T07:32:53;3.03;;;1.70;;
19645;SDS011;9971;52.446;13.452;2022-07-09T07:37:56;3.17;;;1.83;;
19645;SDS011;9971;52.446;13.452;2022-07-09T07:42:59;3.10;;;1.82;;
19645;SDS011;9971;52.446;13.452;2022-07-09T07:48:01;3.22;;;2.12;;
19645;SDS011;9971;52.446;13.452;2022-07-09T07:53:05;2.87;;;1.50;;
19645;SDS011;9971;52.446;13.452;2022-07-09T07:58:06;2.55;;;1.50;;
19645;SDS011;9971;52.446;13.452;2022-07-09T08:03:08;1.90;;;1.32;;
19645;SDS011;9971;52.446;13.452;2022-07-09T08:08:11;2.35;;;1.65;;
19645;SDS011;9971;52.446;13.452;2022-07-09T08:13:14;2.27;;;1.83;;
19645;SDS011;9971;52.446;13.452;2022-07-09T08:18:15;1.92;;;1.40;;
19645;SDS011;9971;52.446;13.452;2022-07-09T08:23:18;1.70;;;1.40;;
19645;SDS011;9971;52.446;13.452;2022-07-09T08:28:21;2.20;;;1.62;;
19645;SDS011;9971;52.446;13.452;2022-07-09T08:33:24;3.15;;;1.70;;
19645;SDS011;9971;52.446;13.452;2022-07-09T08:38:26;3.67;;;2.00;;
19645;SDS011;9971;52.446;13.452;2022-07-09T08:43:31;2.47;;;1.75;;
19645;SDS011;9971;52.446;13.452;2022-07-09T08:48:34;2.73;;;1.80;;
19645;SDS011;9971;52.446;13.452;2022-07-09T08:53:38;2.10;;;1.83;;
19645;SDS011;9971;52.446;13.452;2022-07-09T08:58:38;4.00;;;2.00;;
19645;SDS011;9971;52.446;13.452;2022-07-09T09:03:40;3.17;;;1.70;;
19645;SDS011;9971;52.446;13.452;2022-07-09T09:08:42;3.10;;;1.93;;
19645;SDS011;9971;52.446;13.452;2022-07-09T09:13:44;2.33;;;1.93;;
19645;SDS011;9971;52.446;13.452;2022-07-09T09:18:46;3.37;;;2.07;;
19645;SDS011;9971;52.446;13.452;2022-07-09T09:23:48;2.93;;;1.70;;
19645;SDS011;9971;52.446;13.452;2022-07-09T09:28:52;2.37;;;1.75;;
19645;SDS011;9971;52.446;13.452;2022-07-09T09:33:56;1.72;;;1.52;;
19645;SDS011;9971;52.446;13.452;2022-07-09T09:39:15;2.65;;;1.95;;
19645;SDS011;9971;52.446;13.452;2022-07-09T09:44:23;2.23;;;1.90;;
19645;SDS011;9971;52.446;13.452;2022-07-09T09:49:25;4.73;;;1.87;;
19645;SDS011;9971;52.446;13.452;2022-07-09T09:54:28;4.20;;;2.00;;
19645;SDS011;9971;52.446;13.452;2022-07-09T09:59:30;3.80;;;2.53;;
19645;SDS011;9971;52.446;13.452;2022-07-09T10:04:32;3.73;;;2.43;;
19645;SDS011;9971;52.446;13.452;2022-07-09T10:09:34;3.25;;;2.87;;
19645;SDS011;9971;52.446;13.452;2022-07-09T10:14:37;4.03;;;3.43;;
19645;SDS011;9971;52.446;13.452;2022-07-09T10:19:38;3.60;;;3.03;;
19645;SDS011;9971;52.446;13.452;2022-07-09T10:24:43;4.33;;;3.00;;
19645;SDS011;9971;52.446;13.452;2022-07-09T10:34:53;5.40;;;3.43;;
19645;SDS011;9971;52.446;13.452;2022-07-09T10:39:55;4.45;;;2.67;;
19645;SDS011;9971;52.446;13.452;2022-07-09T10:44:58;2.12;;;1.92;;
19645;SDS011;9971;52.446;13.452;2022-07-09T10:50:03;4.30;;;1.93;;
19645;SDS011;9971;52.446;13.452;2022-07-09T10:55:04;3.77;;;2.02;;
19645;SDS011;9971;52.446;13.452;2022-07-09T11:00:07;2.08;;;1.90;;
19645;SDS011;9971;52.446;13.452;2022-07-09T11:05:11;2.53;;;2.10;;
19645;SDS011;9971;52.446;13.452;2022-07-09T11:10:18;3.17;;;1.95;;
19645;SDS011;9971;52.446;13.452;2022-07-09T11:15:21;2.67;;;2.10;;
19645;SDS011;9971;52.446;13.452;2022-07-09T11:20:23;2.23;;;1.70;;
19645;SDS011;9971;52.446;13.452;2022-07-09T11:25:26;1.60;;;1.42;;
19645;SDS011;9971;52.446;13.452;2022-07-09T11:30:28;2.08;;;1.72;;
19645;SDS011;9971;52.446;13.452;2022-07-09T11:35:30;1.60;;;1.50;;
19645;SDS011;9971;52.446;13.452;2022-07-09T11:40:32;1.77;;;1.17;;
19645;SDS011;9971;52.446;13.452;2022-07-09T11:45:34;2.08;;;1.32;;
19645;SDS011;9971;52.446;13.452;2022-07-09T11:50:42;2.02;;;1.62;;
19645;SDS011;9971;52.446;13.452;2022-07-09T11:55:43;1.50;;;1.30;;
19645;SDS011;9971;52.446;13.452;2022-07-09T12:00:46;2.92;;;1.35;;
19645;SDS011;9971;52.446;13.452;2022-07-09T12:05:49;0.93;;;0.93;;
19645;SDS011;9971;52.446;13.452;2022-07-09T12:10:50;2.23;;;1.20;;
19645;SDS011;9971;52.446;13.452;2022-07-09T12:15:53;2.65;;;1.45;;
19645;SDS011;9971;52.446;13.452;2022-07-09T12:20:55;3.02;;;1.30;;
19645;SDS011;9971;52.446;13.452;2022-07-09T12:25:58;1.77;;;1.15;;
19645;SDS011;9971;52.446;13.452;2022-07-09T12:31:00;2.30;;;1.07;;
19645;SDS011;9971;52.446;13.452;2022-07-09T12:36:02;1.17;;;0.90;;
19645;SDS011;9971;52.446;13.452;2022-07-09T12:41:05;1.82;;;1.47;;
19645;SDS011;9971;52.446;13.452;2022-07-09T12:46:07;1.62;;;1.27;;
19645;SDS011;9971;52.446;13.452;2022-07-09T12:51:10;0.80;;;0.80;;
19645;SDS011;9971;52.446;13.452;2022-07-09T12:56:12;3.55;;;1.82;;
19645;SDS011;9971;52.446;13.452;2022-07-09T13:01:14;2.80;;;1.73;;
19645;SDS011;9971;52.446;13.452;2022-07-09T13:06:17;2.12;;;1.90;;
19645;SDS011;9971;52.446;13.452;2022-07-09T13:11:25;2.47;;;1.80;;
19645;SDS011;9971;52.446;13.452;2022-07-09T13:16:28;2.47;;;2.17;;
19645;SDS011;9971;52.446;13.452;2022-07-09T13:21:29;2.20;;;2.00;;
19645;SDS011;9971;52.446;13.452;2022-07-09T13:26:31;3.33;;;2.00;;
19645;SDS011;9971;52.446;13.452;2022-07-09T13:31:34;2.42;;;1.87;;
19645;SDS011;9971;52.446;13.452;2022-07-09T13:36:36;1.87;;;1.77;;
19645;SDS011;9971;52.446;13.452;2022-07-09T13:41:38;2.60;;;2.17;;
19645;SDS011;9971;52.446;13.452;2022-07-09T13:46:40;2.22;;;1.98;;
19645;SDS011;9971;52.446;13.452;2022-07-09T13:51:43;2.20;;;1.98;;
19645;SDS011;9971;52.446;13.452;2022-07-09T13:56:45;2.62;;;2.12;;
19645;SDS011;9971;52.446;13.452;2022-07-09T14:01:47;2.50;;;2.30;;
19645;SDS011;9971;52.446;13.452;2022-07-09T14:06:50;1.90;;;1.72;;
19645;SDS011;9971;52.446;13.452;2022-07-09T14:11:52;2.70;;;1.87;;
19645;SDS011;9971;52.446;13.452;2022-07-09T14:16:55;2.62;;;2.42;;
19645;SDS011;9971;52.446;13.452;2022-07-09T14:21:57;2.03;;;1.90;;
19645;SDS011;9971;52.446;13.452;2022-07-09T14:26:59;2.22;;;1.75;;
19645;SDS011;9971;52.446;13.452;2022-07-09T14:32:02;1.87;;;1.73;;
19645;SDS011;9971;52.446;13.452;2022-07-09T14:37:05;2.00;;;1.40;;
19645;SDS011;9971;52.446;13.452;2022-07-09T14:42:07;2.20;;;1.57;;
19645;SDS011;9971;52.446;13.452;2022-07-09T14:47:10;2.25;;;1.50;;
19645;SDS011;9971;52.446;13.452;2022-07-09T14:52:14;2.45;;;1.60;;
19645;SDS011;9971;52.446;13.452;2022-07-09T14:57:15;1.15;;;1.10;;
19645;SDS011;9971;52.446;13.452;2022-07-09T15:02:18;1.02;;;1.02;;
19645;SDS011;9971;52.446;13.452;2022-07-09T15:07:21;1.07;;;0.98;;
19645;SDS011;9971;52.446;13.452;2022-07-09T15:12:23;2.92;;;1.00;;
19645;SDS011;9971;52.446;13.452;2022-07-09T15:17:26;1.40;;;1.00;;
19645;SDS011;9971;52.446;13.452;2022-07-09T15:22:28;0.80;;;0.80;;
19645;SDS011;9971;52.446;13.452;2022-07-09T15:27:31;0.82;;;0.82;;
19645;SDS011;9971;52.446;13.452;2022-07-09T15:32:33;0.83;;;0.83;;
19645;SDS011;9971;52.446;13.452;2022-07-09T15:37:35;0.70;;;0.70;;
19645;SDS011;9971;52.446;13.452;2022-07-09T15:42:38;0.82;;;0.82;;
19645;SDS011;9971;52.446;13.452;2022-07-09T15:47:40;0.70;;;0.70;;
19645;SDS011;9971;52.446;13.452;2022-07-09T15:52:42;0.80;;;0.80;;
19645;SDS011;9971;52.446;13.452;2022-07-09T15:57:45;0.70;;;0.60;;
19645;SDS011;9971;52.446;13.452;2022-07-09T16:02:47;0.98;;;0.98;;
19645;SDS011;9971;52.446;13.452;2022-07-09T16:07:50;1.35;;;0.75;;
19645;SDS011;9971;52.446;13.452;2022-07-09T16:12:52;1.52;;;0.90;;
19645;SDS011;9971;52.446;13.452;2022-07-09T16:17:55;1.27;;;1.17;;
19645;SDS011;9971;52.446;13.452;2022-07-09T16:22:57;1.70;;;1.00;;
19645;SDS011;9971;52.446;13.452;2022-07-09T16:28:00;1.13;;;1.00;;
19645;SDS011;9971;52.446;13.452;2022-07-09T16:33:03;0.82;;;0.82;;
19645;SDS011;9971;52.446;13.452;2022-07-09T16:38:06;1.02;;;0.98;;
19645;SDS011;9971;52.446;13.452;2022-07-09T16:43:08;0.93;;;0.80;;
19645;SDS011;9971;52.446;13.452;2022-07-09T16:48:10;1.65;;;1.40;;
19645;SDS011;9971;52.446;13.452;2022-07-09T16:53:13;1.65;;;1.00;;
19645;SDS011;9971;52.446;13.452;2022-07-09T16:58:15;0.93;;;0.93;;
19645;SDS011;9971;52.446;13.452;2022-07-09T17:03:18;0.90;;;0.90;;
19645;SDS011;9971;52.446;13.452;2022-07-09T17:08:21;0.83;;;0.83;;
19645;SDS011;9971;52.446;13.452;2022-07-09T17:13:23;1.07;;;0.90;;
19645;SDS011;9971;52.446;13.452;2022-07-09T17:18:25;0.80;;;0.80;;
19645;SDS011;9971;52.446;13.452;2022-07-09T17:23:27;1.87;;;0.75;;
19645;SDS011;9971;52.446;13.452;2022-07-09T17:28:30;1.40;;;0.82;;
19645;SDS011;9971;52.446;13.452;2022-07-09T17:33:32;1.40;;;1.20;;
19645;SDS011;9971;52.446;13.452;2022-07-09T17:38:35;1.25;;;1.05;;
19645;SDS011;9971;52.446;13.452;2022-07-09T17:43:37;1.50;;;1.22;;
19645;SDS011;9971;52.446;13.452;2022-07-09T17:48:40;0.80;;;0.78;;
19645;SDS011;9971;52.446;13.452;2022-07-09T17:53:42;1.27;;;1.17;;
19645;SDS011;9971;52.446;13.452;2022-07-09T17:58:44;1.77;;;0.95;;
19645;SDS011;9971;52.446;13.452;2022-07-09T18:03:47;1.17;;;0.90;;
19645;SDS011;9971;52.446;13.452;2022-07-09T18:08:49;1.60;;;1.30;;
19645;SDS011;9971;52.446;13.452;2022-07-09T18:13:52;1.35;;;1.25;;
19645;SDS011;9971;52.446;13.452;2022-07-09T18:18:55;1.40;;;1.30;;
19645;SDS011;9971;52.446;13.452;2022-07-09T18:23:57;1.52;;;1.20;;
19645;SDS011;9971;52.446;13.452;2022-07-09T18:29:00;1.67;;;1.45;;
19645;SDS011;9971;52.446;13.452;2022-07-09T18:34:03;2.17;;;1.70;;
19645;SDS011;9971;52.446;13.452;2022-07-09T18:39:05;2.08;;;1.45;;
19645;SDS011;9971;52.446;13.452;2022-07-09T18:44:08;3.10;;;1.67;;
19645;SDS011;9971;52.446;13.452;2022-07-09T18:49:10;3.63;;;1.63;;
19645;SDS011;9971;52.446;13.452;2022-07-09T18:54:12;3.07;;;2.00;;
19645;SDS011;9971;52.446;13.452;2022-07-09T18:59:14;3.17;;;1.90;;
19645;SDS011;9971;52.446;13.452;2022-07-09T19:04:16;2.10;;;1.77;;
19645;SDS011;9971;52.446;13.452;2022-07-09T19:09:18;1.82;;;1.60;;
19645;SDS011;9971;52.446;13.452;2022-07-09T19:14:21;3.02;;;1.90;;
19645;SDS011;9971;52.446;13.452;2022-07-09T19:19:23;1.87;;;1.60;;
19645;SDS011;9971;52.446;13.452;2022-07-09T19:24:26;1.92;;;1.42;;
19645;SDS011;9971;52.446;13.452;2022-07-09T19:29:28;1.83;;;1.23;;
19645;SDS011;9971;52.446;13.452;2022-07-09T19:34:30;2.33;;;1.50;;
19645;SDS011;9971;52.446;13.452;2022-07-09T19:39:32;2.15;;;1.57;;
19645;SDS011;9971;52.446;13.452;2022-07-09T19:44:35;1.62;;;1.27;;
19645;SDS011;9971;52.446;13.452;2022-07-09T19:49:37;3.13;;;1.67;;
19645;SDS011;9971;52.446;13.452;2022-07-09T19:54:39;1.60;;;1.50;;
19645;SDS011;9971;52.446;13.452;2022-07-09T19:59:42;2.12;;;1.87;;
19645;SDS011;9971;52.446;13.452;2022-07-09T20:04:45;2.47;;;1.40;;
19645;SDS011;9971;52.446;13.452;2022-07-09T20:09:48;2.12;;;1.05;;
19645;SDS011;9971;52.446;13.452;2022-07-09T20:14:49;1.90;;;1.13;;
19645;SDS011;9971;52.446;13.452;2022-07-09T20:19:52;2.50;;;1.17;;
19645;SDS011;9971;52.446;13.452;2022-07-09T20:24:54;2.02;;;0.95;;
19645;SDS011;9971;52.446;13.452;2022-07-09T20:29:56;1.30;;;0.83;;
19645;SDS011;9971;52.446;13.452;2022-07-09T20:34:59;3.27;;;1.20;;
19645;SDS011;9971;52.446;13.452;2022-07-09T20:40:01;1.37;;;0.78;;
19645;SDS011;9971;52.446;13.452;2022-07-09T20:45:04;2.70;;;1.00;;
19645;SDS011;9971;52.446;13.452;2022-07-09T20:50:07;2.77;;;1.23;;
19645;SDS011;9971;52.446;13.452;2022-07-09T20:55:10;3.93;;;2.03;;
19645;SDS011;9971;52.446;13.452;2022-07-09T21:00:12;2.03;;;0.93;;
19645;SDS011;9971;52.446;13.452;2022-07-09T21:05:15;1.25;;;0.90;;
19645;SDS011;9971;52.446;13.452;2022-07-09T21:10:17;1.10;;;0.68;;
19645;SDS011;9971;52.446;13.452;2022-07-09T21:15:20;1.80;;;1.20;;
19645;SDS011;9971;52.446;13.452;2022-07-09T21:20:22;2.33;;;0.80;;
19645;SDS011;9971;52.446;13.452;2022-07-09T21:25:24;1.40;;;1.03;;
19645;SDS011;9971;52.446;13.452;2022-07-09T21:30:27;2.20;;;0.93;;
19645;SDS011;9971;52.446;13.452;2022-07-09T21:35:29;2.53;;;1.10;;
19645;SDS011;9971;52.446;13.452;2022-07-09T21:40:32;1.57;;;0.70;;
19645;SDS011;9971;52.446;13.452;2022-07-09T21:45:34;2.55;;;1.75;;
19645;SDS011;9971;52.446;13.452;2022-07-09T21:50:36;2.20;;;1.13;;
19645;SDS011;9971;52.446;13.452;2022-07-09T21:55:38;4.58;;;2.02;;
19645;SDS011;9971;52.446;13.452;2022-07-09T22:00:45;3.03;;;1.17;;
19645;SDS011;9971;52.446;13.452;2022-07-09T22:05:45;2.33;;;1.10;;
19645;SDS011;9971;52.446;13.452;2022-07-09T22:10:48;2.20;;;1.20;;
19645;SDS011;9971;52.446;13.452;2022-07-09T22:15:50;4.23;;;1.10;;
19645;SDS011;9971;52.446;13.452;2022-07-09T22:20:52;3.98;;;1.40;;
19645;SDS011;9971;52.446;13.452;2022-07-09T22:25:55;2.65;;;1.10;;
19645;SDS011;9971;52.446;13.452;2022-07-09T22:30:57;2.33;;;1.33;;
19645;SDS011;9971;52.446;13.452;2022-07-09T22:35:59;1.15;;;0.85;;
19645;SDS011;9971;52.446;13.452;2022-07-09T22:41:02;2.30;;;1.05;;
19645;SDS011;9971;52.446;13.452;2022-07-09T22:46:04;2.20;;;1.10;;
19645;SDS011;9971;52.446;13.452;2022-07-09T22:51:06;2.50;;;1.00;;
19645;SDS011;9971;52.446;13.452;2022-07-09T22:56:09;4.20;;;1.07;;
19645;SDS011;9971;52.446;13.452;2022-07-09T23:01:11;2.55;;;1.15;;
19645;SDS011;9971;52.446;13.452;2022-07-09T23:06:14;4.37;;;1.00;;
19645;SDS011;9971;52.446;13.452;2022-07-09T23:11:16;4.37;;;1.20;;
19645;SDS011;9971;52.446;13.452;2022-07-09T23:16:18;3.12;;;1.17;;
19645;SDS011;9971;52.446;13.452;2022-07-09T23:21:21;3.33;;;1.37;;
19645;SDS011;9971;52.446;13.452;2022-07-09T23:26:23;4.10;;;1.25;;
19645;SDS011;9971;52.446;13.452;2022-07-09T23:31:25;3.07;;;1.13;;
19645;SDS011;9971;52.446;13.452;2022-07-09T23:36:27;1.30;;;0.80;;
19645;SDS011;9971;52.446;13.452;2022-07-09T23:41:30;3.70;;;1.20;;
19645;SDS011;9971;52.446;13.452;2022-07-09T23:46:32;3.00;;;1.10;;
19645;SDS011;9971;52.446;13.452;2022-07-09T23:51:35;3.00;;;1.30;;
19645;SDS011;9971;52.446;13.452;2022-07-09T23:56:37;2.05;;;1.00;;
